Audrey — PD9331 — position and weather

sailwx.info

Track history (hours):
 
Tides and Currents Weather Stations Pressure Air Temp Water Temp Dewpoint Dewpoint Depression Visibility Wind Speed Wind Dir Waves Ship Positions

Audrey

Last reported at 2015-Feb-28 18:14 UTC. Time now 2015-Mar-01 11:01 UTC.
Position N 48°41' E 007°55'.

Length 85 m; draft 2.3 m.

Type: Other ship. MMSI: 244660106.

Date/timePositionNaut miles runAvg speedWind from/ knotsBaromVisibWave heightAir tempDewpointWater temp
2015-Feb-28 18:14N 48°41' E 007°55'0 0.7
2015-Feb-28 17:32N 48°41' E 007°55'4 3.7
2015-Feb-28 16:33N 48°44' E 007°58'7 6.7
2015-Feb-28 15:31N 48°49' E 008°06'2 1.6
2015-Feb-28 14:31N 48°50' E 008°07'4 4.5
2015-Feb-28 13:33N 48°54' E 008°09'4 4.2
2015-Feb-28 12:33N 48°58' E 008°13'4 4.3
2015-Feb-28 11:33N 49°01' E 008°18'4 4.2
2015-Feb-28 10:33N 49°04' E 008°20'4 4.2
2015-Feb-28 09:33N 49°08' E 008°22'4 4.2
2015-Feb-28 08:33N 49°13' E 008°23'4 4.3
2015-Feb-28 07:33N 49°16' E 008°27'3 3.3
2015-Feb-28 06:33N 49°19' E 008°27'6 4.7
2015-Feb-28 05:22N 49°25' E 008°30'3 3.9
2015-Feb-28 04:29N 49°27' E 008°27'5 0.2
2015-Feb-27 08:26N 49°23' E 008°30'8 9.4
2015-Feb-27 07:33N 49°15' E 008°26'1110.7
2015-Feb-27 06:33N 49°05' E 008°21'1010.5
2015-Feb-27 05:33N 48°57' E 008°11'7 5.8
2015-Feb-27 04:15N 48°50' E 008°07'0 0.0
2015-Feb-27 03:32N 48°50' E 008°07'0 0.0
2015-Feb-27 02:32N 48°50' E 008°07'0 0.0
2015-Feb-27 01:32N 48°50' E 008°07'0 0.0
2015-Feb-27 00:33N 48°50' E 008°07'0 0.0
2015-Feb-26 23:31N 48°50' E 008°07'0 0.0
2015-Feb-26 22:33N 48°50' E 008°07'0 0.0
2015-Feb-26 21:30N 48°50' E 008°07'0 0.0
2015-Feb-26 20:33N 48°50' E 008°07'1 0.5
2015-Feb-26 19:33N 48°50' E 008°07'7 7.1
2015-Feb-26 18:33N 48°45' E 007°58'6 5.8
2015-Feb-26 17:33N 48°40' E 007°54'1 0.1
2015-Feb-26 05:20N 48°41' E 007°55'3 4.4
2015-Feb-26 04:33N 48°44' E 007°58'3 2.5
2015-Feb-26 03:33N 48°46' E 008°01'0 0.0
2015-Feb-26 02:33N 48°46' E 008°01'0 0.0
2015-Feb-26 01:33N 48°46' E 008°01'0 0.0
2015-Feb-26 00:33N 48°46' E 008°01'0 0.0
2015-Feb-25 23:33N 48°46' E 008°01'0 0.0
2015-Feb-25 22:31N 48°46' E 008°01'2 2.4
2015-Feb-25 21:33N 48°47' E 008°03'4 4.2
2015-Feb-25 20:30N 48°51' E 008°07'4 4.7
2015-Feb-25 19:33N 48°55' E 008°10'5 4.6
2015-Feb-25 18:33N 48°58' E 008°14'4 4.5
2015-Feb-25 17:33N 49°02' E 008°18'5 4.9
2015-Feb-25 16:33N 49°06' E 008°22'5 4.8
2015-Feb-25 15:33N 49°11' E 008°23'3 3.4
2015-Feb-25 14:33N 49°14' E 008°22'0 0.1
2015-Feb-25 13:33N 49°14' E 008°22'0 0.0
2015-Feb-25 12:33N 49°14' E 008°23'0 0.0
2015-Feb-25 11:33N 49°14' E 008°22'0 0.0
2015-Feb-25 10:33N 49°14' E 008°22'0 0.0
2015-Feb-25 09:33N 49°14' E 008°22'0 0.0
2015-Feb-25 08:32N 49°14' E 008°22'3 3.0
2015-Feb-25 07:33N 49°16' E 008°26'3 3.0
2015-Feb-25 06:33N 49°19' E 008°28'3 3.3
2015-Feb-25 05:33N 49°22' E 008°30'3 2.7
2015-Feb-25 04:18N 49°25' E 008°31'21618.3
2015-Feb-24 16:31N 51°54' E 004°24'118 3.5
2015-Feb-23 07:17N 50°49' E 007°02'3 2.8
2015-Feb-23 06:21N 50°52' E 007°01'2 2.5
2015-Feb-23 05:30N 50°54' E 007°01'15 1.4
2015-Feb-22 18:33N 51°08' E 006°51'2 2.3
2015-Feb-22 17:33N 51°09' E 006°48'4 3.7
2015-Feb-22 16:33N 51°12' E 006°44'3 3.0
2015-Feb-22 15:33N 51°14' E 006°46'4 3.6
2015-Feb-22 14:28N 51°18' E 006°44'5 4.4
2015-Feb-22 13:25N 51°22' E 006°39'28 3.5
2015-Feb-22 05:24N 51°47' E 006°19'10 5.4
2015-Feb-22 03:32N 51°51' E 006°05'3 0.4
2015-Feb-21 19:05N 51°53' E 005°60'7 4.5
2015-Feb-21 17:32N 51°52' E 005°49'6 6.0
2015-Feb-21 16:33N 51°54' E 005°39'6 5.8
2015-Feb-21 15:33N 51°53' E 005°30'6 5.6
2015-Feb-21 14:33N 51°50' E 005°23'5 4.9
2015-Feb-21 13:33N 51°49' E 005°15'6 6.1
2015-Feb-21 12:33N 51°50' E 005°05'7 6.9
2015-Feb-21 11:33N 51°49' E 004°54'7 7.3
2015-Feb-21 10:33N 51°45' E 004°44'8 8.3
2015-Feb-21 09:33N 51°42' E 004°32'5 4.8
2015-Feb-21 08:31N 51°41' E 004°24'6 6.6
2015-Feb-21 07:33N 51°38' E 004°15'7 6.7
2015-Feb-21 06:30N 51°31' E 004°14'5 5.6
2015-Feb-21 05:33N 51°26' E 004°14'5 4.9
2015-Feb-21 04:33N 51°22' E 004°17'0 0.2
2015-Feb-21 03:23N 51°22' E 004°17'0 0.0
2015-Feb-21 02:33N 51°22' E 004°17'0 0.0
2015-Feb-21 01:33N 51°22' E 004°17'0 0.0
2015-Feb-21 00:33N 51°22' E 004°17'0 0.0
2015-Feb-20 23:33N 51°22' E 004°17'0 0.0
2015-Feb-20 22:33N 51°22' E 004°17'0 0.0
2015-Feb-20 21:32N 51°22' E 004°17'0 0.0
2015-Feb-20 20:32N 51°22' E 004°17'0 0.0
2015-Feb-20 19:32N 51°22' E 004°17'0 0.0
2015-Feb-20 18:33N 51°22' E 004°17'0 0.0
2015-Feb-20 17:33N 51°22' E 004°17'0 0.0
2015-Feb-20 16:32N 51°22' E 004°17'0 0.0
2015-Feb-20 15:32N 51°22' E 004°17'0 0.0
2015-Feb-20 14:32N 51°22' E 004°17'0 0.0
2015-Feb-20 13:33N 51°22' E 004°17'0 0.0
2015-Feb-20 12:31N 51°22' E 004°17'0 0.0
2015-Feb-20 11:13N 51°22' E 004°17'0 0.0
2015-Feb-20 10:30N 51°22' E 004°17'0 0.0
2015-Feb-20 09:30N 51°22' E 004°17'3232.3
2015-Feb-20 08:31N 51°53' E 004°26'3231.8
2015-Feb-20 07:31N 51°21' E 004°18'0 0.0
2015-Feb-20 06:33N 51°21' E 004°18'0 0.0
2015-Feb-20 05:33N 51°21' E 004°18'0 0.0
2015-Feb-20 04:32N 51°21' E 004°18'0 0.0
2015-Feb-20 03:33N 51°21' E 004°18'0 0.0
2015-Feb-20 02:33N 51°21' E 004°18'0 0.0
2015-Feb-20 01:32N 51°21' E 004°18'0 0.0
2015-Feb-20 00:33N 51°21' E 004°18'0 0.0
2015-Feb-19 23:33N 51°21' E 004°18'0 0.0
2015-Feb-19 22:33N 51°21' E 004°18'0 0.0
2015-Feb-19 21:33N 51°21' E 004°18'0 0.0
2015-Feb-19 20:33N 51°21' E 004°18'0 0.0
2015-Feb-19 19:33N 51°21' E 004°18'0 0.0
2015-Feb-19 18:30N 51°21' E 004°18'0 0.0
2015-Feb-19 17:28N 51°21' E 004°18'0 0.0
2015-Feb-19 16:33N 51°21' E 004°18'0 0.0
2015-Feb-19 15:33N 51°21' E 004°18'0 0.0
2015-Feb-19 14:33N 51°21' E 004°18'0 0.0
2015-Feb-19 13:33N 51°21' E 004°18'0 0.0
2015-Feb-19 12:32N 51°21' E 004°18'0 0.0
2015-Feb-19 11:33N 51°21' E 004°18'0 0.0
2015-Feb-19 10:32N 51°21' E 004°18'1 0.9
2015-Feb-19 09:33N 51°22' E 004°18'6 5.4
2015-Feb-19 08:32N 51°27' E 004°14'4 4.6
2015-Feb-19 07:33N 51°31' E 004°13'7 7.3
2015-Feb-19 06:33N 51°39' E 004°16'6 5.9
2015-Feb-19 05:29N 51°41' E 004°25'8 8.5
2015-Feb-19 04:33N 51°43' E 004°37'6 6.0
2015-Feb-19 03:33N 51°49' E 004°40'0 0.0
2015-Feb-19 02:33N 51°49' E 004°40'0 0.0
2015-Feb-19 01:34N 51°49' E 004°40'0 0.0
2015-Feb-19 00:33N 51°49' E 004°40'0 0.0
2015-Feb-18 23:33N 51°49' E 004°40'0 0.0
2015-Feb-18 22:34N 51°49' E 004°40'0 0.0
2015-Feb-18 21:33N 51°49' E 004°40'3 2.9
2015-Feb-18 20:33N 51°49' E 004°44'1110.9
2015-Feb-18 19:33N 51°49' E 005°02'1110.9
2015-Feb-18 18:33N 51°49' E 005°20'  
Track history (hours):
 
Tides and Currents Weather Stations Pressure Air Temp Water Temp Dewpoint Dewpoint Depression Visibility Wind Speed Wind Dir Waves Ship Positions

Audrey

Last reported at 2015-Feb-28 18:14 UTC. Time now 2015-Mar-01 11:01 UTC.
Position N 48°41' E 007°55'.

Length 85 m; draft 2.3 m.

Type: Other ship. MMSI: 244660106.

Date/timePositionNaut miles runAvg speedWind from/ knotsBaromVisibWave heightAir tempDewpointWater temp
2015-Feb-28 18:14N 48°41' E 007°55'0 0.7
2015-Feb-28 17:32N 48°41' E 007°55'4 3.7
2015-Feb-28 16:33N 48°44' E 007°58'7 6.7
2015-Feb-28 15:31N 48°49' E 008°06'2 1.6
2015-Feb-28 14:31N 48°50' E 008°07'4 4.5
2015-Feb-28 13:33N 48°54' E 008°09'4 4.2
2015-Feb-28 12:33N 48°58' E 008°13'4 4.3
2015-Feb-28 11:33N 49°01' E 008°18'4 4.2
2015-Feb-28 10:33N 49°04' E 008°20'4 4.2
2015-Feb-28 09:33N 49°08' E 008°22'4 4.2
2015-Feb-28 08:33N 49°13' E 008°23'4 4.3
2015-Feb-28 07:33N 49°16' E 008°27'3 3.3
2015-Feb-28 06:33N 49°19' E 008°27'6 4.7
2015-Feb-28 05:22N 49°25' E 008°30'3 3.9
2015-Feb-28 04:29N 49°27' E 008°27'5 0.2
2015-Feb-27 08:26N 49°23' E 008°30'8 9.4
2015-Feb-27 07:33N 49°15' E 008°26'1110.7
2015-Feb-27 06:33N 49°05' E 008°21'1010.5
2015-Feb-27 05:33N 48°57' E 008°11'7 5.8
2015-Feb-27 04:15N 48°50' E 008°07'0 0.0
2015-Feb-27 03:32N 48°50' E 008°07'0 0.0
2015-Feb-27 02:32N 48°50' E 008°07'0 0.0
2015-Feb-27 01:32N 48°50' E 008°07'0 0.0
2015-Feb-27 00:33N 48°50' E 008°07'0 0.0
2015-Feb-26 23:31N 48°50' E 008°07'0 0.0
2015-Feb-26 22:33N 48°50' E 008°07'0 0.0
2015-Feb-26 21:30N 48°50' E 008°07'0 0.0
2015-Feb-26 20:33N 48°50' E 008°07'1 0.5
2015-Feb-26 19:33N 48°50' E 008°07'7 7.1
2015-Feb-26 18:33N 48°45' E 007°58'6 5.8
2015-Feb-26 17:33N 48°40' E 007°54'1 0.1
2015-Feb-26 05:20N 48°41' E 007°55'3 4.4
2015-Feb-26 04:33N 48°44' E 007°58'3 2.5
2015-Feb-26 03:33N 48°46' E 008°01'0 0.0
2015-Feb-26 02:33N 48°46' E 008°01'0 0.0
2015-Feb-26 01:33N 48°46' E 008°01'0 0.0
2015-Feb-26 00:33N 48°46' E 008°01'0 0.0
2015-Feb-25 23:33N 48°46' E 008°01'0 0.0
2015-Feb-25 22:31N 48°46' E 008°01'2 2.4
2015-Feb-25 21:33N 48°47' E 008°03'4 4.2
2015-Feb-25 20:30N 48°51' E 008°07'4 4.7
2015-Feb-25 19:33N 48°55' E 008°10'5 4.6
2015-Feb-25 18:33N 48°58' E 008°14'4 4.5
2015-Feb-25 17:33N 49°02' E 008°18'5 4.9
2015-Feb-25 16:33N 49°06' E 008°22'5 4.8
2015-Feb-25 15:33N 49°11' E 008°23'3 3.4
2015-Feb-25 14:33N 49°14' E 008°22'0 0.1
2015-Feb-25 13:33N 49°14' E 008°22'0 0.0
2015-Feb-25 12:33N 49°14' E 008°23'0 0.0
2015-Feb-25 11:33N 49°14' E 008°22'0 0.0
2015-Feb-25 10:33N 49°14' E 008°22'0 0.0
2015-Feb-25 09:33N 49°14' E 008°22'0 0.0
2015-Feb-25 08:32N 49°14' E 008°22'3 3.0
2015-Feb-25 07:33N 49°16' E 008°26'3 3.0
2015-Feb-25 06:33N 49°19' E 008°28'3 3.3
2015-Feb-25 05:33N 49°22' E 008°30'3 2.7
2015-Feb-25 04:18N 49°25' E 008°31'21618.3
2015-Feb-24 16:31N 51°54' E 004°24'118 3.5
2015-Feb-23 07:17N 50°49' E 007°02'3 2.8
2015-Feb-23 06:21N 50°52' E 007°01'2 2.5
2015-Feb-23 05:30N 50°54' E 007°01'15 1.4
2015-Feb-22 18:33N 51°08' E 006°51'2 2.3
2015-Feb-22 17:33N 51°09' E 006°48'4 3.7
2015-Feb-22 16:33N 51°12' E 006°44'3 3.0
2015-Feb-22 15:33N 51°14' E 006°46'4 3.6
2015-Feb-22 14:28N 51°18' E 006°44'5 4.4
2015-Feb-22 13:25N 51°22' E 006°39'28 3.5
2015-Feb-22 05:24N 51°47' E 006°19'10 5.4
2015-Feb-22 03:32N 51°51' E 006°05'3 0.4
2015-Feb-21 19:05N 51°53' E 005°60'7 4.5
2015-Feb-21 17:32N 51°52' E 005°49'6 6.0
2015-Feb-21 16:33N 51°54' E 005°39'6 5.8
2015-Feb-21 15:33N 51°53' E 005°30'6 5.6
2015-Feb-21 14:33N 51°50' E 005°23'5 4.9
2015-Feb-21 13:33N 51°49' E 005°15'6 6.1
2015-Feb-21 12:33N 51°50' E 005°05'7 6.9
2015-Feb-21 11:33N 51°49' E 004°54'7 7.3
2015-Feb-21 10:33N 51°45' E 004°44'8 8.3
2015-Feb-21 09:33N 51°42' E 004°32'5 4.8
2015-Feb-21 08:31N 51°41' E 004°24'6 6.6
2015-Feb-21 07:33N 51°38' E 004°15'7 6.7
2015-Feb-21 06:30N 51°31' E 004°14'5 5.6
2015-Feb-21 05:33N 51°26' E 004°14'5 4.9
2015-Feb-21 04:33N 51°22' E 004°17'0 0.2
2015-Feb-21 03:23N 51°22' E 004°17'0 0.0
2015-Feb-21 02:33N 51°22' E 004°17'0 0.0
2015-Feb-21 01:33N 51°22' E 004°17'0 0.0
2015-Feb-21 00:33N 51°22' E 004°17'0 0.0
2015-Feb-20 23:33N 51°22' E 004°17'0 0.0
2015-Feb-20 22:33N 51°22' E 004°17'0 0.0
2015-Feb-20 21:32N 51°22' E 004°17'0 0.0
2015-Feb-20 20:32N 51°22' E 004°17'0 0.0
2015-Feb-20 19:32N 51°22' E 004°17'0 0.0
2015-Feb-20 18:33N 51°22' E 004°17'0 0.0
2015-Feb-20 17:33N 51°22' E 004°17'0 0.0
2015-Feb-20 16:32N 51°22' E 004°17'0 0.0
2015-Feb-20 15:32N 51°22' E 004°17'0 0.0
2015-Feb-20 14:32N 51°22' E 004°17'0 0.0
2015-Feb-20 13:33N 51°22' E 004°17'0 0.0
2015-Feb-20 12:31N 51°22' E 004°17'0 0.0
2015-Feb-20 11:13N 51°22' E 004°17'0 0.0
2015-Feb-20 10:30N 51°22' E 004°17'0 0.0
2015-Feb-20 09:30N 51°22' E 004°17'3232.3
2015-Feb-20 08:31N 51°53' E 004°26'3231.8
2015-Feb-20 07:31N 51°21' E 004°18'0 0.0
2015-Feb-20 06:33N 51°21' E 004°18'0 0.0
2015-Feb-20 05:33N 51°21' E 004°18'0 0.0
2015-Feb-20 04:32N 51°21' E 004°18'0 0.0
2015-Feb-20 03:33N 51°21' E 004°18'0 0.0
2015-Feb-20 02:33N 51°21' E 004°18'0 0.0
2015-Feb-20 01:32N 51°21' E 004°18'0 0.0
2015-Feb-20 00:33N 51°21' E 004°18'0 0.0
2015-Feb-19 23:33N 51°21' E 004°18'0 0.0
2015-Feb-19 22:33N 51°21' E 004°18'0 0.0
2015-Feb-19 21:33N 51°21' E 004°18'0 0.0
2015-Feb-19 20:33N 51°21' E 004°18'0 0.0
2015-Feb-19 19:33N 51°21' E 004°18'0 0.0
2015-Feb-19 18:30N 51°21' E 004°18'0 0.0
2015-Feb-19 17:28N 51°21' E 004°18'0 0.0
2015-Feb-19 16:33N 51°21' E 004°18'0 0.0
2015-Feb-19 15:33N 51°21' E 004°18'0 0.0
2015-Feb-19 14:33N 51°21' E 004°18'0 0.0
2015-Feb-19 13:33N 51°21' E 004°18'0 0.0
2015-Feb-19 12:32N 51°21' E 004°18'0 0.0
2015-Feb-19 11:33N 51°21' E 004°18'0 0.0
2015-Feb-19 10:32N 51°21' E 004°18'1 0.9
2015-Feb-19 09:33N 51°22' E 004°18'6 5.4
2015-Feb-19 08:32N 51°27' E 004°14'4 4.6
2015-Feb-19 07:33N 51°31' E 004°13'7 7.3
2015-Feb-19 06:33N 51°39' E 004°16'6 5.9
2015-Feb-19 05:29N 51°41' E 004°25'8 8.5
2015-Feb-19 04:33N 51°43' E 004°37'6 6.0
2015-Feb-19 03:33N 51°49' E 004°40'0 0.0
2015-Feb-19 02:33N 51°49' E 004°40'0 0.0
2015-Feb-19 01:34N 51°49' E 004°40'0 0.0
2015-Feb-19 00:33N 51°49' E 004°40'0 0.0
2015-Feb-18 23:33N 51°49' E 004°40'0 0.0
2015-Feb-18 22:34N 51°49' E 004°40'0 0.0
2015-Feb-18 21:33N 51°49' E 004°40'3 2.9
2015-Feb-18 20:33N 51°49' E 004°44'1110.9
2015-Feb-18 19:33N 51°49' E 005°02'1110.9
2015-Feb-18 18:33N 51°49' E 005°20'  

Dump ship's entire track history